Time;durP1;ratioP1;P1;durP2;ratioP2;P2;SDS_P1;SDS_P2;PMS_P1;PMS_P2;Temp;Humidity;BMP_temperature;BMP_pressure;BME280_temperature;BME280_humidity;BME280_pressure;Samples;Min_cycle;Max_cycle;Signal;HPM_P1;HPM_P2
2022/12/17 13:06:52;;;;;;;34.00;18.60;;;;;;;;;;4976673;28;21241;-85
2022/12/17 13:09:57;;;;;;;32.67;18.80;;;;;;;;;;4993174;28;20904;-86
2022/12/17 13:13:30;;;;;;;38.17;20.10;;;;;;;;;;4995577;28;20955;-86
2022/12/17 13:17:04;;;;;;;36.27;19.77;;;;;;;;;;4986200;28;20552;-85
2022/12/17 13:20:24;;;;;;;33.57;18.73;;;;;;;;;;4997275;28;20559;-85
2022/12/17 13:23:33;;;;;;;39.03;19.93;;;;;;;;;;4997377;28;20553;-85
2022/12/17 13:26:40;;;;;;;33.70;19.53;;;;;;;;;;4997067;28;21003;-85
2022/12/17 13:29:45;;;;;;;38.70;18.80;;;;;;;;;;4997520;28;20552;-87
2022/12/17 13:33:17;;;;;;;36.33;19.63;;;;;;;;;;4996930;28;20655;-86
2022/12/17 13:36:52;;;;;;;34.93;19.77;;;;;;;;;;4997769;28;20544;-86
2022/12/17 13:40:15;;;;;;;33.37;18.33;;;;;;;;;;4996757;28;21102;-85
2022/12/17 13:43:23;;;;;;;36.47;20.10;;;;;;;;;;4997955;28;20548;-85
2022/12/17 13:46:39;;;;;;;33.70;18.57;;;;;;;;;;4997753;28;20608;-85
2022/12/17 13:49:49;;;;;;;36.50;19.57;;;;;;;;;;4997294;28;20556;-86
2022/12/17 13:52:53;;;;;;;34.63;18.67;;;;;;;;;;5008326;28;20615;-85
2022/12/17 13:55:58;;;;;;;36.33;19.60;;;;;;;;;;4997445;28;20547;-85
2022/12/17 13:59:03;;;;;;;34.43;19.27;;;;;;;;;;4997279;28;20552;-85
2022/12/17 14:02:23;;;;;;;39.73;19.57;;;;;;;;;;4996457;28;20634;-84
2022/12/17 14:05:46;;;;;;;37.57;18.60;;;;;;;;;;4996235;28;21018;-85
2022/12/17 14:08:53;;;;;;;32.90;18.77;;;;;;;;;;4997474;28;20560;-85
2022/12/17 14:15:28;;;;;;;36.67;20.03;;;;;;;;;;5007553;28;20556;-85
2022/12/17 14:18:33;;;;;;;40.17;20.80;;;;;;;;;;4997451;28;20556;-84
2022/12/17 14:21:40;;;;;;;35.77;19.50;;;;;;;;;;5007614;28;20639;-85
2022/12/17 14:24:44;;;;;;;37.90;21.27;;;;;;;;;;5006717;28;21113;-86
2022/12/17 14:27:57;;;;;;;38.57;20.70;;;;;;;;;;4996500;28;20556;-85
2022/12/17 14:31:23;;;;;;;34.47;18.80;;;;;;;;;;5007695;28;20643;-86
2022/12/17 14:34:28;;;;;;;35.77;20.40;;;;;;;;;;4996537;28;20548;-85
2022/12/17 14:37:33;;;;;;;38.73;19.63;;;;;;;;;;4996067;28;20611;-85
2022/12/17 14:40:37;;;;;;;36.43;18.70;;;;;;;;;;4995854;28;21317;-86
2022/12/17 14:43:42;;;;;;;35.67;19.33;;;;;;;;;;4995328;28;20615;-85
2022/12/17 14:46:46;;;;;;;38.83;19.67;;;;;;;;;;5007137;28;20679;-87
2022/12/17 14:49:53;;;;;;;42.23;20.20;;;;;;;;;;4998429;28;20552;-86
2022/12/17 14:53:00;;;;;;;34.30;19.23;;;;;;;;;;4998392;28;20541;-87
2022/12/17 14:56:21;;;;;;;36.37;20.37;;;;;;;;;;4998668;28;20608;-86
2022/12/17 14:59:37;;;;;;;32.80;18.83;;;;;;;;;;5015292;28;20556;-88
2022/12/17 15:02:43;;;;;;;42.00;20.50;;;;;;;;;;5004631;28;20563;-87
2022/12/17 15:05:59;;;;;;;37.10;19.67;;;;;;;;;;4997115;28;20658;-86
2022/12/17 15:09:04;;;;;;;37.00;19.27;;;;;;;;;;4996475;28;20560;-80
2022/12/17 15:12:08;;;;;;;38.37;21.23;;;;;;;;;;5011713;28;20631;-85
2022/12/17 15:15:14;;;;;;;39.53;21.40;;;;;;;;;;4999152;28;20548;-84
2022/12/17 15:18:18;;;;;;;39.97;21.67;;;;;;;;;;4999768;28;20560;-85
2022/12/17 15:21:24;;;;;;;41.87;22.07;;;;;;;;;;4999957;28;20725;-83
2022/12/17 15:24:28;;;;;;;43.67;22.40;;;;;;;;;;4998220;28;20564;-83
2022/12/17 15:27:32;;;;;;;40.70;21.40;;;;;;;;;;5008895;28;20549;-84
2022/12/17 15:30:38;;;;;;;43.80;22.00;;;;;;;;;;5007738;28;20639;-82
2022/12/17 15:33:43;;;;;;;35.63;20.80;;;;;;;;;;4998866;28;20544;-83
2022/12/17 15:36:47;;;;;;;40.33;21.80;;;;;;;;;;4997476;28;20544;-83
2022/12/17 15:39:51;;;;;;;37.03;20.57;;;;;;;;;;5009155;28;20560;-83
2022/12/17 15:43:10;;;;;;;41.27;21.97;;;;;;;;;;5010869;28;20567;-81
2022/12/17 15:46:15;;;;;;;40.73;21.37;;;;;;;;;;4999202;28;20612;-83
2022/12/17 15:49:20;;;;;;;42.00;21.47;;;;;;;;;;4999618;28;20548;-83
2022/12/17 15:52:24;;;;;;;40.27;21.63;;;;;;;;;;4999973;28;20631;-83
2022/12/17 15:55:29;;;;;;;38.87;20.10;;;;;;;;;;5012210;28;20916;-82
2022/12/17 15:58:33;;;;;;;43.23;22.33;;;;;;;;;;5001170;28;20896;-82
2022/12/17 16:01:37;;;;;;;40.40;21.10;;;;;;;;;;5012515;28;21007;-82
2022/12/17 16:04:41;;;;;;;41.00;21.27;;;;;;;;;;4999770;28;20623;-83
2022/12/17 16:07:46;;;;;;;37.33;20.87;;;;;;;;;;5000234;28;20536;-82
2022/12/17 16:10:50;;;;;;;42.00;21.83;;;;;;;;;;5000385;28;20970;-82
2022/12/17 16:13:55;;;;;;;39.17;21.67;;;;;;;;;;4999355;28;20548;-82
2022/12/17 16:16:59;;;;;;;42.80;21.77;;;;;;;;;;5009685;28;20552;-81
2022/12/17 16:20:05;;;;;;;41.27;21.53;;;;;;;;;;4986592;28;20551;-82
2022/12/17 16:23:10;;;;;;;43.03;21.53;;;;;;;;;;4997720;28;20548;-82
2022/12/17 16:26:14;;;;;;;40.17;22.27;;;;;;;;;;5010580;28;21177;-83
2022/12/17 16:29:18;;;;;;;37.87;19.93;;;;;;;;;;5012408;28;20547;-85
2022/12/17 16:32:23;;;;;;;43.40;20.93;;;;;;;;;;5010370;28;20634;-84
2022/12/17 16:35:27;;;;;;;41.53;20.80;;;;;;;;;;5007546;28;20607;-84
2022/12/17 16:38:32;;;;;;;43.17;21.27;;;;;;;;;;5018461;28;20611;-84
2022/12/17 16:41:37;;;;;;;43.57;22.27;;;;;;;;;;5019641;28;20626;-85
2022/12/17 16:44:41;;;;;;;38.00;21.07;;;;;;;;;;5007418;28;20552;-84
2022/12/17 16:47:45;;;;;;;45.37;22.07;;;;;;;;;;5008335;28;20615;-83
2022/12/17 16:50:50;;;;;;;42.33;21.23;;;;;;;;;;5009717;28;20631;-82
2022/12/17 16:53:56;;;;;;;39.37;21.03;;;;;;;;;;5020905;28;20540;-84
2022/12/17 16:57:01;;;;;;;45.20;21.27;;;;;;;;;;5007849;28;20535;-82
2022/12/17 17:00:06;;;;;;;44.93;23.50;;;;;;;;;;5010517;28;20903;-83
2022/12/17 17:03:10;;;;;;;36.93;19.27;;;;;;;;;;5022571;28;20627;-82
2022/12/17 17:06:16;;;;;;;43.23;21.73;;;;;;;;;;4992841;28;20654;-81
2022/12/17 17:09:20;;;;;;;39.10;20.47;;;;;;;;;;5003082;28;20611;-82
2022/12/17 17:12:25;;;;;;;40.60;20.40;;;;;;;;;;5023129;28;20639;-82
2022/12/17 17:15:31;;;;;;;38.93;20.20;;;;;;;;;;5000952;28;20899;-82
2022/12/17 17:18:36;;;;;;;41.47;20.57;;;;;;;;;;5012262;28;21090;-81
2022/12/17 17:21:46;;;;;;;39.03;20.03;;;;;;;;;;5010294;28;20640;-80
2022/12/17 17:24:51;;;;;;;42.97;22.10;;;;;;;;;;4999417;28;20585;-81
2022/12/17 17:27:55;;;;;;;40.87;21.47;;;;;;;;;;4998054;28;20611;-82
2022/12/17 17:31:00;;;;;;;39.03;20.53;;;;;;;;;;4997748;28;20634;-82
2022/12/17 17:34:10;;;;;;;39.30;20.83;;;;;;;;;;4997359;28;20544;-82
2022/12/17 17:37:15;;;;;;;38.23;20.53;;;;;;;;;;4997697;28;20541;-82
2022/12/17 17:40:19;;;;;;;37.80;19.30;;;;;;;;;;4997502;28;20900;-82
2022/12/17 17:43:23;;;;;;;39.27;19.50;;;;;;;;;;4997949;28;20556;-82
2022/12/17 17:46:29;;;;;;;41.10;20.77;;;;;;;;;;5008379;28;20607;-83
2022/12/17 17:49:34;;;;;;;38.03;19.83;;;;;;;;;;4997120;28;20571;-82
2022/12/17 17:52:38;;;;;;;38.43;20.30;;;;;;;;;;4997028;28;20619;-82
2022/12/17 17:55:42;;;;;;;41.77;21.17;;;;;;;;;;5008875;28;20603;-83
2022/12/17 17:58:48;;;;;;;41.13;20.47;;;;;;;;;;4997490;28;20607;-83
2022/12/17 18:01:53;;;;;;;43.70;22.73;;;;;;;;;;4997146;28;20643;-83
2022/12/17 18:04:57;;;;;;;43.50;21.53;;;;;;;;;;4997985;28;20618;-82
2022/12/17 18:08:01;;;;;;;40.30;21.27;;;;;;;;;;4997787;28;21162;-82
2022/12/17 18:11:07;;;;;;;39.27;19.83;;;;;;;;;;4998174;28;20647;-84
2022/12/17 18:14:12;;;;;;;41.20;20.07;;;;;;;;;;5008655;28;20884;-82
2022/12/17 18:17:16;;;;;;;41.90;22.37;;;;;;;;;;4997495;28;20552;-83
2022/12/17 18:20:20;;;;;;;40.03;20.20;;;;;;;;;;5008461;28;20586;-82
2022/12/17 18:23:25;;;;;;;37.40;20.07;;;;;;;;;;4997468;28;20552;-82
2022/12/17 18:26:31;;;;;;;39.67;20.83;;;;;;;;;;4996509;28;20623;-83
2022/12/17 18:29:35;;;;;;;39.77;20.13;;;;;;;;;;4997135;28;20552;-83
2022/12/17 18:32:39;;;;;;;36.90;20.43;;;;;;;;;;4996929;28;20631;-84
2022/12/17 18:35:43;;;;;;;38.73;21.47;;;;;;;;;;5009150;28;20561;-82
2022/12/17 18:38:54;;;;;;;40.40;22.35;;;;;;;;;;4996655;28;20539;-81
2022/12/17 18:45:22;;;;;;;37.38;20.98;;;;;;;;;;5007465;28;20188;-83
2022/12/17 18:48:26;;;;;;;45.40;22.58;;;;;;;;;;4995804;28;20200;-82
2022/12/17 18:51:30;;;;;;;44.05;22.02;;;;;;;;;;5007710;28;20235;-82
2022/12/17 18:54:34;;;;;;;41.10;21.10;;;;;;;;;;5007332;28;20204;-82
2022/12/17 18:57:39;;;;;;;45.53;20.67;;;;;;;;;;5007359;28;20545;-83
2022/12/17 19:00:44;;;;;;;41.88;21.77;;;;;;;;;;4996635;28;20703;-83
2022/12/17 19:03:48;;;;;;;41.72;21.50;;;;;;;;;;5008222;28;20253;-84
2022/12/17 19:06:53;;;;;;;38.15;20.73;;;;;;;;;;4996370;28;20204;-83
2022/12/17 19:09:57;;;;;;;40.97;20.98;;;;;;;;;;4994916;28;20189;-82
2022/12/17 19:13:02;;;;;;;42.17;20.25;;;;;;;;;;4995742;28;20640;-82
2022/12/17 19:16:09;;;;;;;41.72;21.10;;;;;;;;;;4995096;28;20184;-83
2022/12/17 19:19:13;;;;;;;36.65;19.13;;;;;;;;;;5006987;28;20184;-83
2022/12/17 19:22:18;;;;;;;42.53;21.60;;;;;;;;;;5006439;28;20224;-81
2022/12/17 19:25:22;;;;;;;41.05;21.15;;;;;;;;;;4995709;28;20181;-82
2022/12/17 19:28:26;;;;;;;39.45;21.55;;;;;;;;;;5007065;28;20208;-83
2022/12/17 19:31:31;;;;;;;43.90;21.48;;;;;;;;;;4995403;28;20232;-83
2022/12/17 19:34:35;;;;;;;42.63;22.88;;;;;;;;;;4995921;28;20196;-82
2022/12/17 19:37:40;;;;;;;40.90;21.88;;;;;;;;;;4995906;28;20184;-83
2022/12/17 19:40:44;;;;;;;46.17;22.60;;;;;;;;;;5018141;28;20224;-83
2022/12/17 19:43:56;;;;;;;46.13;22.38;;;;;;;;;;4995268;28;20216;-82
2022/12/17 19:47:00;;;;;;;43.33;21.52;;;;;;;;;;5005821;28;20221;-82
2022/12/17 19:50:04;;;;;;;47.28;23.98;;;;;;;;;;4995053;28;20532;-83
2022/12/17 19:53:09;;;;;;;47.92;23.85;;;;;;;;;;5004539;28;20204;-82
2022/12/17 19:56:26;;;;;;;47.55;22.83;;;;;;;;;;4993761;28;20659;-82
2022/12/17 19:59:31;;;;;;;38.22;21.30;;;;;;;;;;4982729;28;20181;-82
2022/12/17 20:02:35;;;;;;;40.95;22.65;;;;;;;;;;5015715;28;20719;-81
2022/12/17 20:05:43;;;;;;;42.70;23.52;;;;;;;;;;4993723;28;20687;-82
2022/12/17 20:08:47;;;;;;;45.03;22.50;;;;;;;;;;5004371;28;20699;-83
2022/12/17 20:11:52;;;;;;;42.58;23.20;;;;;;;;;;5004748;28;20224;-82
2022/12/17 20:14:56;;;;;;;44.78;23.30;;;;;;;;;;4993503;28;20205;-82
2022/12/17 20:18:00;;;;;;;45.45;22.55;;;;;;;;;;4993599;28;20183;-83
2022/12/17 20:21:05;;;;;;;51.05;23.75;;;;;;;;;;4993824;28;20223;-83
2022/12/17 20:24:10;;;;;;;48.10;21.42;;;;;;;;;;4993186;28;20188;-82
2022/12/17 20:27:14;;;;;;;45.53;22.88;;;;;;;;;;5004625;28;20220;-84
2022/12/17 20:30:19;;;;;;;46.72;22.73;;;;;;;;;;4993370;28;20188;-84
2022/12/17 20:33:23;;;;;;;53.95;24.88;;;;;;;;;;4994027;28;20616;-82
2022/12/17 20:36:28;;;;;;;60.88;28.52;;;;;;;;;;5004641;28;20181;-81
2022/12/17 20:39:34;;;;;;;56.50;27.40;;;;;;;;;;4993462;28;20181;-80
2022/12/17 20:42:38;;;;;;;46.00;24.73;;;;;;;;;;4993646;28;20228;-83
2022/12/17 20:45:50;;;;;;;46.90;25.02;;;;;;;;;;4993491;28;20208;-81
2022/12/17 20:48:54;;;;;;;47.35;23.98;;;;;;;;;;4993027;28;20211;-82
2022/12/17 20:51:58;;;;;;;49.38;24.80;;;;;;;;;;5004017;28;20224;-84
2022/12/17 20:55:03;;;;;;;50.78;23.05;;;;;;;;;;4992708;28;20188;-82
2022/12/17 20:58:08;;;;;;;48.58;24.38;;;;;;;;;;5003692;28;20188;-82
2022/12/17 21:01:17;;;;;;;50.58;23.30;;;;;;;;;;5004100;28;20240;-84
2022/12/17 21:04:22;;;;;;;53.35;25.45;;;;;;;;;;4992756;28;20539;-82
2022/12/17 21:07:26;;;;;;;55.60;25.40;;;;;;;;;;4992794;28;20220;-83
2022/12/17 21:10:30;;;;;;;56.92;26.98;;;;;;;;;;4992551;28;20193;-83
2022/12/17 21:13:36;;;;;;;52.47;25.90;;;;;;;;;;4992820;28;20192;-83
2022/12/17 21:16:42;;;;;;;53.33;26.02;;;;;;;;;;5004031;28;20552;-83
2022/12/17 21:19:46;;;;;;;57.17;28.35;;;;;;;;;;5004178;28;20185;-83
2022/12/17 21:22:50;;;;;;;61.05;28.33;;;;;;;;;;4992628;28;20193;-83
2022/12/17 21:26:05;;;;;;;60.25;29.00;;;;;;;;;;4992602;28;20659;-82
2022/12/17 21:29:10;;;;;;;59.10;29.23;;;;;;;;;;5004147;28;20687;-83
2022/12/17 21:32:14;;;;;;;67.55;28.08;;;;;;;;;;4992776;28;20216;-83
2022/12/17 21:35:18;;;;;;;64.20;28.08;;;;;;;;;;4996590;28;20208;-82
2022/12/17 21:38:22;;;;;;;61.83;29.92;;;;;;;;;;4996554;28;20200;-82
2022/12/17 21:41:33;;;;;;;63.72;29.25;;;;;;;;;;5004079;28;20248;-82
2022/12/17 21:44:37;;;;;;;61.83;27.70;;;;;;;;;;5006637;28;20218;-84
2022/12/17 21:47:41;;;;;;;57.90;28.15;;;;;;;;;;4995675;28;20220;-84
2022/12/17 21:50:45;;;;;;;70.05;29.52;;;;;;;;;;4984535;28;20216;-84
2022/12/17 21:53:54;;;;;;;67.40;30.27;;;;;;;;;;4987672;28;20210;-87
2022/12/17 21:56:59;;;;;;;55.17;27.10;;;;;;;;;;4989070;28;20189;-85
2022/12/17 22:00:03;;;;;;;59.72;27.98;;;;;;;;;;4995118;28;20210;-86
2022/12/17 22:03:08;;;;;;;58.10;27.02;;;;;;;;;;4999543;28;20184;-85
2022/12/17 22:06:15;;;;;;;60.03;27.85;;;;;;;;;;4994907;28;20208;-84
2022/12/17 22:09:20;;;;;;;55.95;27.75;;;;;;;;;;4995028;28;20220;-85
2022/12/17 22:15:47;;;;;;;62.65;27.73;;;;;;;;;;5005898;28;20193;-85
2022/12/17 22:18:51;;;;;;;67.90;27.88;;;;;;;;;;5006200;28;20188;-86
2022/12/17 22:21:57;;;;;;;60.63;28.30;;;;;;;;;;5005637;28;20220;-85
2022/12/17 22:25:01;;;;;;;62.17;28.00;;;;;;;;;;5017300;28;20185;-85
2022/12/17 22:28:06;;;;;;;62.92;28.08;;;;;;;;;;4996890;28;20221;-86
2022/12/17 22:34:33;;;;;;;60.72;27.90;;;;;;;;;;5019429;28;20205;-83
2022/12/17 22:37:37;;;;;;;56.95;27.20;;;;;;;;;;5005932;28;20682;-79
2022/12/17 22:40:41;;;;;;;62.00;26.48;;;;;;;;;;5018805;28;20215;-82
2022/12/17 22:43:45;;;;;;;60.88;27.42;;;;;;;;;;5006708;28;20656;-80
2022/12/17 22:46:49;;;;;;;64.10;26.42;;;;;;;;;;5005699;28;20668;-80
2022/12/17 22:49:54;;;;;;;58.85;24.98;;;;;;;;;;5006688;28;20184;-80
2022/12/17 22:52:58;;;;;;;58.40;27.33;;;;;;;;;;4995320;28;20249;-80
2022/12/17 22:56:04;;;;;;;52.25;24.67;;;;;;;;;;5006878;28;20289;-80
2022/12/17 22:59:14;;;;;;;54.10;23.80;;;;;;;;;;5017721;28;20216;-82
2022/12/17 23:02:18;;;;;;;54.97;25.33;;;;;;;;;;5006396;28;20236;-82
2022/12/17 23:05:24;;;;;;;57.97;24.63;;;;;;;;;;5018596;28;20269;-84
2022/12/17 23:08:28;;;;;;;51.03;24.88;;;;;;;;;;4995166;28;20277;-82
2022/12/17 23:11:33;;;;;;;56.20;25.80;;;;;;;;;;5006915;28;20220;-82
2022/12/17 23:14:36;;;;;;;57.05;25.35;;;;;;;;;;5006418;28;20184;-82
2022/12/17 23:17:41;;;;;;;59.40;25.17;;;;;;;;;;5007264;28;20197;-83
2022/12/17 23:20:45;;;;;;;63.05;25.40;;;;;;;;;;4995640;28;20711;-83
2022/12/17 23:23:50;;;;;;;58.25;24.50;;;;;;;;;;5007154;28;20648;-83
2022/12/17 23:26:54;;;;;;;58.38;23.90;;;;;;;;;;5007001;28;20652;-81
2022/12/17 23:29:58;;;;;;;62.17;24.95;;;;;;;;;;5005909;28;20196;-82
2022/12/17 23:33:02;;;;;;;65.53;25.45;;;;;;;;;;5005336;28;20204;-81
2022/12/17 23:36:14;;;;;;;62.20;26.02;;;;;;;;;;4995252;28;20196;-80
2022/12/17 23:39:19;;;;;;;60.50;25.75;;;;;;;;;;5005533;28;20181;-83
2022/12/17 23:42:23;;;;;;;61.70;26.23;;;;;;;;;;5006076;28;20707;-83
2022/12/17 23:45:27;;;;;;;61.22;25.02;;;;;;;;;;5005710;28;20204;-83
2022/12/17 23:48:34;;;;;;;56.83;24.63;;;;;;;;;;4983521;28;20224;-84
2022/12/17 23:51:38;;;;;;;61.25;26.50;;;;;;;;;;4982868;28;20588;-83
2022/12/17 23:54:42;;;;;;;68.55;26.27;;;;;;;;;;5005022;28;20656;-83
2022/12/17 23:57:47;;;;;;;67.30;25.63;;;;;;;;;;4993527;28;20193;-82
